createdAt,value
2018-11-29T00:12:26.785Z,4.90
2018-11-29T00:32:16.819Z,4.80
2018-11-29T00:34:45.197Z,4.80
2018-11-29T00:37:13.579Z,4.80
2018-11-29T00:39:41.998Z,4.80
2018-11-29T00:42:10.401Z,4.80
2018-11-29T00:44:38.778Z,4.80
2018-11-29T00:47:07.450Z,4.80
2018-11-29T00:49:35.814Z,4.80
2018-11-29T01:09:25.715Z,4.70
2018-11-29T01:11:54.110Z,4.70
2018-11-29T01:14:22.473Z,4.70
2018-11-29T01:16:50.878Z,4.70
2018-11-29T01:19:19.250Z,4.70
2018-11-29T01:21:47.642Z,4.70
2018-11-29T01:24:16.039Z,4.70
2018-11-29T01:26:44.418Z,4.70
2018-11-29T01:29:12.798Z,4.70
2018-11-29T01:31:41.225Z,4.70
2018-11-29T01:34:09.628Z,4.70
2018-11-29T01:36:38.006Z,4.70
2018-11-29T01:56:28.089Z,4.60
2018-11-29T01:58:56.462Z,4.70
2018-11-29T02:01:24.850Z,4.70
2018-11-29T02:03:53.540Z,4.70
2018-11-29T02:23:42.938Z,4.60
2018-11-29T02:43:32.482Z,4.70
2018-11-29T03:03:21.826Z,4.80
2018-11-29T03:05:50.497Z,4.80
2018-11-29T03:08:18.866Z,4.80
2018-11-29T03:10:47.239Z,4.80
2018-11-29T03:13:15.934Z,4.80
2018-11-29T03:15:44.302Z,4.80
2018-11-29T03:18:12.674Z,4.80
2018-11-29T03:38:02.467Z,4.60
2018-11-29T03:57:51.502Z,4.20
2018-11-29T04:00:19.966Z,4.10
2018-11-29T04:02:48.630Z,4.10
2018-11-29T04:05:17.054Z,4.00
2018-11-29T04:07:45.763Z,4.00
2018-11-29T04:10:16.410Z,4.00
2018-11-29T04:12:44.794Z,4.00
2018-11-29T04:15:14.303Z,4.00
2018-11-29T04:17:42.816Z,4.00
2018-11-29T04:20:15.116Z,4.00
2018-11-29T04:40:05.280Z,4.20
2018-11-29T04:59:55.346Z,4.30
2018-11-29T05:02:23.730Z,4.30
2018-11-29T05:22:13.826Z,4.30
2018-11-29T05:24:42.200Z,4.30
2018-11-29T05:27:10.590Z,4.30
2018-11-29T05:29:39.317Z,4.40
2018-11-29T05:32:07.687Z,4.40
2018-11-29T05:34:36.058Z,4.30
2018-11-29T05:54:24.887Z,4.30
2018-11-29T05:56:53.269Z,4.30
2018-11-29T06:16:42.918Z,4.40
2018-11-29T06:19:11.330Z,4.40
2018-11-29T06:21:39.698Z,4.40
2018-11-29T06:24:13.436Z,4.30
2018-11-29T06:26:36.536Z,4.30
2018-11-29T06:29:05.182Z,4.30
2018-11-29T06:31:33.710Z,4.30
2018-11-29T06:34:02.095Z,4.40
2018-11-29T06:36:30.469Z,4.30
2018-11-29T06:38:58.921Z,4.20
2018-11-29T06:41:27.301Z,4.20
2018-11-29T06:43:55.682Z,4.30
2018-11-29T06:46:24.261Z,4.30
2018-11-29T06:48:52.629Z,4.30
2018-11-29T06:51:21.036Z,4.30
2018-11-29T06:53:54.844Z,4.30
2018-11-29T06:56:23.221Z,4.30
2018-11-29T06:58:51.607Z,4.30
2018-11-29T07:18:41.686Z,4.20
2018-11-29T07:21:21.453Z,4.10
2018-11-29T07:41:09.802Z,4.40
2018-11-29T07:43:38.203Z,4.30
2018-11-29T07:46:06.953Z,4.40
2018-11-29T07:48:37.330Z,4.30
2018-11-29T07:51:05.832Z,4.40
2018-11-29T07:53:34.246Z,4.40
2018-11-29T07:56:02.974Z,4.40
2018-11-29T07:58:31.342Z,4.40
2018-11-29T08:00:59.726Z,4.40
2018-11-29T08:20:49.810Z,4.50
2018-11-29T08:23:18.194Z,4.60
2018-11-29T08:25:46.563Z,4.50
2018-11-29T08:28:14.985Z,4.60
2018-11-29T08:30:43.390Z,4.60
2018-11-29T08:33:11.774Z,4.70
2018-11-29T08:35:40.174Z,4.70
2018-11-29T08:38:08.586Z,4.70
2018-11-29T08:40:36.979Z,4.80
2018-11-29T09:00:26.879Z,4.80
2018-11-29T09:20:16.738Z,5.00
2018-11-29T09:22:45.386Z,5.00
2018-11-29T09:25:15.862Z,5.10
2018-11-29T09:27:44.325Z,5.10
2018-11-29T09:30:14.911Z,5.20
2018-11-29T09:32:43.971Z,5.20
2018-11-29T09:35:12.424Z,5.10
2018-11-29T09:37:41.005Z,5.20
2018-11-29T09:40:16.391Z,5.10
2018-11-29T09:42:45.330Z,5.20
2018-11-29T09:45:19.713Z,5.10
2018-11-29T09:47:49.366Z,5.10
2018-11-29T10:07:39.598Z,5.10
2018-11-29T10:27:29.126Z,5.20
2018-11-29T10:29:57.499Z,5.10
2018-11-29T10:49:46.970Z,5.20
2018-11-29T10:52:15.545Z,5.20
2018-11-29T10:54:43.914Z,5.20
2018-11-29T10:57:12.361Z,5.30
2018-11-29T11:17:00.477Z,5.50
2018-11-29T11:19:28.882Z,5.50
2018-11-29T11:21:57.959Z,5.50
2018-11-29T11:24:25.687Z,5.60
2018-11-29T11:26:54.267Z,5.60
2018-11-29T11:29:22.640Z,5.60
2018-11-29T11:31:51.078Z,5.70
2018-11-29T11:34:19.469Z,5.60
2018-11-29T11:54:08.924Z,5.60
2018-11-29T11:56:37.323Z,5.90
2018-11-29T11:59:05.781Z,5.90
2018-11-29T12:01:34.174Z,5.90
2018-11-29T12:21:24.407Z,6.10
2018-11-29T12:23:52.786Z,6.10
2018-11-29T12:26:21.158Z,6.10
2018-11-29T12:28:49.582Z,6.00
2018-11-29T12:31:17.959Z,5.90
2018-11-29T12:33:46.349Z,6.00
2018-11-29T12:36:14.763Z,6.00
2018-11-29T12:38:43.138Z,6.10
2018-11-29T12:41:11.588Z,6.10
2018-11-29T12:43:40.179Z,6.00
2018-11-29T12:46:08.567Z,6.10
2018-11-29T12:48:36.946Z,6.10
2018-11-29T12:51:05.880Z,6.10
2018-11-29T12:53:34.278Z,6.10
2018-11-29T12:56:02.715Z,6.20
2018-11-29T12:58:31.118Z,6.20
2018-11-29T13:00:59.486Z,6.30
2018-11-29T13:03:27.879Z,6.30
2018-11-29T13:05:56.591Z,6.30
2018-11-29T13:08:25.549Z,6.40
2018-11-29T13:10:53.959Z,6.40
2018-11-29T13:13:22.370Z,6.50
2018-11-29T13:15:50.770Z,6.50
2018-11-29T13:18:19.159Z,6.50
2018-11-29T13:20:47.911Z,6.50
2018-11-29T13:23:16.295Z,6.50
2018-11-29T13:25:44.695Z,6.50
2018-11-29T13:28:13.093Z,6.40
2018-11-29T13:30:41.469Z,6.50
2018-11-29T13:33:10.062Z,6.40
2018-11-29T13:35:38.824Z,6.50
2018-11-29T13:38:10.804Z,6.50
2018-11-29T13:40:39.504Z,6.40
2018-11-29T13:43:07.890Z,6.40
2018-11-29T13:45:36.270Z,6.40
2018-11-29T13:48:05.449Z,6.50
2018-11-29T13:50:33.842Z,6.40
2018-11-29T13:53:02.215Z,6.40
2018-11-29T14:12:54.284Z,6.20
2018-11-29T14:15:23.966Z,6.10
2018-11-29T14:17:52.345Z,6.00
2018-11-29T14:20:20.979Z,6.00
2018-11-29T14:40:13.926Z,5.80
2018-11-29T14:42:42.422Z,5.80
2018-11-29T14:45:12.069Z,5.80
2018-11-29T15:05:01.282Z,5.80
2018-11-29T15:07:29.654Z,5.80
2018-11-29T15:09:58.030Z,5.80
2018-11-29T15:29:47.970Z,5.80
2018-11-29T15:32:16.386Z,5.80
2018-11-29T15:34:44.811Z,5.80
2018-11-29T15:37:13.241Z,5.90
2018-11-29T15:39:41.642Z,5.90
2018-11-29T15:59:31.326Z,5.90
2018-11-29T16:01:59.693Z,5.90
2018-11-29T16:04:28.076Z,5.90
2018-11-29T16:24:17.762Z,5.80
2018-11-29T16:26:46.365Z,5.80
2018-11-29T16:29:14.757Z,5.80
2018-11-29T16:49:04.627Z,5.60
2018-11-29T17:08:54.269Z,5.50
2018-11-29T17:11:22.695Z,5.50
2018-11-29T17:13:51.113Z,5.50
2018-11-29T17:16:19.478Z,5.50
2018-11-29T17:36:09.837Z,5.50
2018-11-29T17:38:38.226Z,5.50
2018-11-29T17:41:07.615Z,5.50
2018-11-29T17:43:36.180Z,5.50
2018-11-29T18:03:26.022Z,5.50
2018-11-29T18:05:54.443Z,5.60
2018-11-29T18:08:22.819Z,5.60
2018-11-29T18:28:13.646Z,5.20
2018-11-29T18:30:42.575Z,5.10
2018-11-29T18:50:32.483Z,4.90
2018-11-29T18:53:00.874Z,5.00
2018-11-29T18:55:29.770Z,5.00
2018-11-29T19:15:20.873Z,5.10
2018-11-29T19:17:50.282Z,5.00
2018-11-29T19:20:19.347Z,5.00
2018-11-29T19:22:48.685Z,5.00
2018-11-29T19:42:38.198Z,5.00
2018-11-29T20:02:30.565Z,5.00
2018-11-29T20:22:21.466Z,4.80
2018-11-29T20:42:12.134Z,4.70
2018-11-29T21:02:03.019Z,4.80
2018-11-29T21:21:53.824Z,4.50
2018-11-29T21:41:43.893Z,4.50
2018-11-29T22:01:34.178Z,4.70
2018-11-29T22:21:24.297Z,4.90
2018-11-29T22:41:13.746Z,4.90
2018-11-29T23:01:07.187Z,4.60
2018-11-29T23:20:56.891Z,4.60
2018-11-29T23:23:25.351Z,4.60
2018-11-29T23:25:53.826Z,4.60
2018-11-29T23:28:22.262Z,4.60
2018-11-29T23:30:50.647Z,4.60
2018-11-29T23:50:40.318Z,4.50
